createdAt,value
2023-03-20T00:00:42.204Z,80.20
2023-03-20T00:03:11.953Z,80.10
2023-03-20T00:05:42.091Z,80.10
2023-03-20T00:08:12.240Z,80.20
2023-03-20T00:10:44.842Z,80.20
2023-03-20T00:13:18.096Z,80.20
2023-03-20T00:15:50.547Z,80.20
2023-03-20T00:18:29.940Z,80.10
2023-03-20T00:21:04.292Z,80.10
2023-03-20T00:23:33.771Z,80.10
2023-03-20T00:26:02.566Z,80.20
2023-03-20T00:28:39.113Z,80.10
2023-03-20T00:31:15.197Z,80.20
2023-03-20T00:33:43.983Z,80.10
2023-03-20T00:36:12.548Z,80.00
2023-03-20T00:38:41.884Z,80.00
2023-03-20T00:41:19.675Z,80.00
2023-03-20T00:43:48.936Z,80.00
2023-03-20T00:46:19.394Z,79.90
2023-03-20T00:48:52.100Z,80.10
2023-03-20T00:51:22.102Z,80.20
2023-03-20T00:54:04.926Z,80.20
2023-03-20T00:56:36.136Z,80.10
2023-03-20T00:59:08.037Z,80.10
2023-03-20T01:01:43.134Z,80.10
2023-03-20T01:04:15.645Z,80.00
2023-03-20T01:06:45.760Z,80.00
2023-03-20T01:09:16.210Z,80.00
2023-03-20T01:14:44.924Z,80.20
2023-03-20T01:17:39.842Z,80.40
2023-03-20T01:20:15.340Z,80.40
2023-03-20T01:22:45.440Z,80.50
2023-03-20T01:25:14.051Z,80.60
2023-03-20T01:27:42.410Z,80.60
2023-03-20T01:30:19.709Z,80.60
2023-03-20T01:32:48.516Z,80.50
2023-03-20T01:35:25.165Z,80.50
2023-03-20T01:37:54.658Z,80.30
2023-03-20T01:40:41.150Z,80.30
2023-03-20T01:43:14.311Z,80.40
2023-03-20T01:45:53.202Z,80.40
2023-03-20T01:48:22.543Z,80.50
2023-03-20T01:50:54.854Z,80.60
2023-03-20T01:53:28.538Z,80.60
2023-03-20T01:56:09.866Z,80.70
2023-03-20T01:58:52.656Z,80.60
2023-03-20T02:01:24.990Z,80.50
2023-03-20T02:04:06.337Z,80.50
2023-03-20T02:06:48.363Z,80.50
2023-03-20T02:09:36.499Z,80.40
2023-03-20T02:12:13.685Z,80.30
2023-03-20T02:14:44.710Z,80.30
2023-03-20T02:17:42.992Z,80.40
2023-03-20T02:20:19.774Z,80.40
2023-03-20T02:23:22.164Z,80.50
2023-03-20T02:26:10.796Z,80.50
2023-03-20T02:29:03.435Z,80.60
2023-03-20T02:31:58.226Z,80.70
2023-03-20T02:34:48.745Z,80.80
2023-03-20T02:40:32.403Z,80.80
2023-03-20T02:46:06.356Z,80.70
2023-03-20T02:48:41.093Z,80.60
2023-03-20T02:51:13.386Z,80.60
2023-03-20T02:53:44.749Z,80.60
2023-03-20T02:56:17.741Z,80.70
2023-03-20T02:58:50.987Z,80.70
2023-03-20T03:01:23.634Z,80.70
2023-03-20T03:03:56.435Z,80.60
2023-03-20T03:06:28.205Z,80.80
2023-03-20T03:09:00.183Z,80.90
2023-03-20T03:11:30.702Z,80.80
2023-03-20T03:13:59.950Z,80.80
2023-03-20T03:16:29.060Z,80.70
2023-03-20T03:19:02.028Z,80.80
2023-03-20T03:21:31.520Z,80.90
2023-03-20T03:24:00.080Z,81.00
2023-03-20T03:26:32.183Z,81.10
2023-03-20T03:29:04.057Z,81.10
2023-03-20T03:31:32.766Z,81.20
2023-03-20T03:34:02.735Z,81.30
2023-03-20T03:36:37.866Z,81.40
2023-03-20T03:39:10.478Z,81.30
2023-03-20T03:41:42.831Z,81.30
2023-03-20T03:44:14.340Z,81.20
2023-03-20T03:46:46.603Z,81.20
2023-03-20T03:49:18.226Z,81.20
2023-03-20T03:51:49.897Z,81.20
2023-03-20T03:54:19.959Z,81.20
2023-03-20T03:57:09.061Z,81.20
2023-03-20T03:59:39.569Z,81.10
2023-03-20T04:02:10.674Z,81.00
2023-03-20T04:04:41.757Z,80.80
2023-03-20T04:07:11.979Z,80.80
2023-03-20T04:09:40.406Z,80.80
2023-03-20T04:12:20.126Z,80.90
2023-03-20T04:14:49.594Z,81.00
2023-03-20T04:17:19.053Z,80.80
2023-03-20T04:19:47.188Z,80.80
2023-03-20T04:22:15.959Z,80.70
2023-03-20T04:24:44.448Z,80.60
2023-03-20T04:27:15.073Z,80.60
2023-03-20T04:29:43.601Z,80.60
2023-03-20T04:32:30.842Z,80.50
2023-03-20T04:35:26.526Z,80.60
2023-03-20T04:37:59.924Z,80.60
2023-03-20T04:40:31.827Z,80.70
2023-03-20T04:43:01.627Z,80.90
2023-03-20T04:45:30.297Z,80.90
2023-03-20T04:47:59.132Z,81.00
2023-03-20T04:50:28.907Z,81.00
2023-03-20T04:52:59.202Z,81.10
2023-03-20T04:55:27.877Z,81.00
2023-03-20T04:57:56.468Z,80.80
2023-03-20T05:00:27.515Z,80.70
2023-03-20T05:02:55.624Z,80.70
2023-03-20T05:05:24.906Z,80.60
2023-03-20T05:07:57.206Z,80.70
2023-03-20T05:10:36.204Z,80.70
2023-03-20T05:13:23.499Z,80.60
2023-03-20T05:16:01.716Z,80.70
2023-03-20T05:18:48.737Z,80.50
2023-03-20T05:21:42.955Z,80.50
2023-03-20T05:24:19.577Z,80.40
2023-03-20T05:26:59.955Z,80.40
2023-03-20T05:29:46.055Z,80.40
2023-03-20T05:32:36.950Z,80.40
2023-03-20T05:35:13.391Z,80.40
2023-03-20T05:37:55.855Z,80.40
2023-03-20T05:40:36.935Z,80.40
2023-03-20T05:43:34.754Z,80.40
2023-03-20T05:46:26.449Z,80.50
2023-03-20T05:49:11.643Z,80.60
2023-03-20T05:51:55.708Z,80.70
2023-03-20T05:54:42.157Z,80.80
2023-03-20T05:57:30.635Z,80.70
2023-03-20T06:00:19.584Z,80.60
2023-03-20T06:02:47.901Z,80.50
2023-03-20T06:05:38.610Z,80.60
2023-03-20T06:08:07.600Z,80.50
2023-03-20T06:10:36.071Z,80.40
2023-03-20T06:13:04.327Z,80.40
2023-03-20T06:15:33.975Z,80.50
2023-03-20T06:18:12.362Z,80.40
2023-03-20T06:20:42.369Z,80.30
2023-03-20T06:23:11.077Z,80.20
2023-03-20T06:25:39.933Z,80.20
2023-03-20T06:28:09.091Z,80.20
2023-03-20T06:30:38.744Z,80.20
2023-03-20T06:33:08.431Z,80.20
2023-03-20T06:35:53.141Z,80.20
2023-03-20T06:38:21.501Z,80.10
2023-03-20T06:40:50.333Z,80.10
2023-03-20T06:43:19.517Z,80.10
2023-03-20T06:45:53.132Z,80.20
2023-03-20T06:48:31.413Z,80.20
2023-03-20T06:51:06.393Z,80.20
2023-03-20T06:53:40.033Z,80.30
2023-03-20T06:56:12.362Z,80.30
2023-03-20T06:58:43.003Z,80.40
2023-03-20T07:01:13.577Z,80.40
2023-03-20T07:03:42.571Z,80.40
2023-03-20T07:06:13.517Z,80.50
2023-03-20T07:08:42.167Z,80.70
2023-03-20T07:11:11.232Z,80.90
2023-03-20T07:13:39.904Z,81.00
2023-03-20T07:16:18.640Z,81.10
2023-03-20T07:18:48.206Z,81.20
2023-03-20T07:21:21.564Z,81.30
2023-03-20T07:23:50.539Z,81.30
2023-03-20T07:26:19.213Z,81.50
2023-03-20T07:28:47.796Z,81.30
2023-03-20T07:31:27.177Z,81.30
2023-03-20T07:34:08.539Z,81.40
2023-03-20T07:36:38.818Z,81.20
2023-03-20T07:39:08.538Z,81.20
2023-03-20T07:41:39.003Z,81.30
2023-03-20T07:44:10.618Z,81.30
2023-03-20T07:47:06.248Z,81.30
2023-03-20T07:49:34.636Z,81.40
2023-03-20T07:52:04.522Z,81.40
2023-03-20T07:54:33.193Z,81.40
2023-03-20T07:57:02.076Z,81.30
2023-03-20T07:59:30.179Z,81.20
2023-03-20T08:01:58.907Z,81.20
2023-03-20T08:04:27.696Z,81.30
2023-03-20T08:06:56.802Z,81.30
2023-03-20T08:09:28.064Z,81.10
2023-03-20T08:11:57.047Z,81.20
2023-03-20T08:14:25.607Z,81.10
2023-03-20T08:17:10.172Z,81.00
2023-03-20T08:19:41.819Z,80.90
2023-03-20T08:22:10.529Z,81.00
2023-03-20T08:24:40.190Z,81.10
2023-03-20T08:27:08.535Z,80.80
2023-03-20T08:29:37.407Z,80.90
2023-03-20T08:32:06.975Z,80.60
2023-03-20T08:34:35.832Z,80.30
2023-03-20T08:37:04.792Z,80.10
2023-03-20T08:39:33.589Z,79.90
2023-03-20T08:42:03.421Z,80.10
2023-03-20T08:44:31.773Z,80.00
2023-03-20T08:47:00.522Z,79.90
2023-03-20T08:49:29.697Z,79.90
2023-03-20T08:51:58.609Z,80.10
2023-03-20T08:54:27.618Z,80.10
2023-03-20T08:56:56.440Z,80.10
2023-03-20T08:59:26.620Z,80.20
2023-03-20T09:01:55.646Z,80.10
2023-03-20T09:04:24.939Z,80.10
2023-03-20T09:06:54.275Z,80.20
2023-03-20T09:09:29.862Z,80.30
2023-03-20T09:11:58.825Z,80.30
2023-03-20T09:14:29.492Z,80.20
2023-03-20T09:16:58.160Z,80.40
2023-03-20T09:19:26.471Z,80.20
2023-03-20T09:21:54.675Z,80.50
2023-03-20T09:24:23.141Z,80.50
2023-03-20T09:26:51.480Z,80.40
2023-03-20T09:29:20.326Z,80.30
2023-03-20T09:31:50.549Z,80.60
2023-03-20T09:34:19.264Z,80.60
2023-03-20T09:36:49.081Z,80.60
2023-03-20T09:39:19.029Z,80.60
2023-03-20T09:41:57.118Z,80.70
2023-03-20T09:44:36.110Z,80.60
2023-03-20T09:47:19.745Z,80.80
2023-03-20T09:49:52.425Z,80.60
2023-03-20T09:52:23.267Z,80.80
2023-03-20T09:55:05.492Z,80.80
2023-03-20T09:57:46.116Z,80.60
2023-03-20T10:00:18.298Z,80.00
2023-03-20T10:02:49.777Z,78.80
2023-03-20T10:05:21.790Z,77.20
2023-03-20T10:07:50.947Z,75.40
2023-03-20T10:10:20.789Z,74.40
2023-03-20T10:12:52.639Z,74.20
2023-03-20T10:15:24.311Z,73.20
2023-03-20T10:17:59.088Z,73.30
2023-03-20T10:20:31.247Z,73.00
2023-03-20T10:23:00.406Z,71.50
2023-03-20T10:25:31.281Z,71.50
2023-03-20T10:28:00.458Z,71.30
2023-03-20T10:30:34.341Z,71.60
2023-03-20T10:33:12.460Z,71.90
2023-03-20T10:35:45.372Z,72.20
2023-03-20T10:38:19.399Z,72.90
2023-03-20T10:40:47.785Z,72.50
2023-03-20T10:43:18.560Z,73.70
2023-03-20T10:45:48.110Z,74.00
2023-03-20T10:54:28.968Z,72.20
2023-03-20T11:00:02.150Z,72.80
2023-03-20T11:02:31.284Z,72.20
2023-03-20T11:05:07.471Z,73.50
2023-03-20T11:08:09.439Z,72.70
2023-03-20T11:10:57.941Z,72.90
2023-03-20T11:13:43.681Z,73.70
2023-03-20T11:16:24.941Z,73.80
2023-03-20T11:18:55.355Z,74.90
2023-03-20T11:21:27.745Z,75.90
2023-03-20T11:27:39.986Z,75.40
2023-03-20T11:30:45.943Z,74.30
2023-03-20T11:36:31.166Z,74.30
2023-03-20T11:39:00.872Z,72.90
2023-03-20T11:41:34.742Z,72.70
2023-03-20T11:44:12.187Z,71.80
2023-03-20T11:46:44.556Z,70.20
2023-03-20T11:52:54.138Z,65.10
2023-03-20T11:55:30.668Z,62.60
2023-03-20T11:58:04.394Z,62.60
2023-03-20T12:01:07.829Z,61.00
2023-03-20T12:09:55.342Z,63.10
2023-03-20T12:21:31.391Z,63.20
2023-03-20T12:24:22.766Z,61.30
2023-03-20T12:30:26.262Z,63.50
2023-03-20T12:33:25.637Z,63.20
2023-03-20T12:36:33.622Z,60.10
2023-03-20T12:39:12.764Z,60.50
2023-03-20T12:41:46.954Z,59.80
2023-03-20T12:44:22.419Z,61.60
2023-03-20T12:46:58.202Z,58.50
2023-03-20T12:49:31.385Z,60.10
2023-03-20T12:52:05.442Z,60.90
2023-03-20T12:54:41.752Z,61.10
2023-03-20T13:00:36.773Z,61.80
2023-03-20T13:06:13.205Z,62.10
2023-03-20T13:09:05.332Z,62.90
2023-03-20T13:11:40.958Z,62.10
2023-03-20T13:17:27.689Z,62.50
2023-03-20T13:20:17.909Z,62.90
2023-03-20T13:22:53.256Z,61.80
2023-03-20T13:25:48.242Z,62.60
2023-03-20T13:28:49.098Z,61.80
2023-03-20T13:31:27.346Z,62.90
2023-03-20T13:34:00.877Z,61.30
2023-03-20T13:36:38.601Z,61.50
2023-03-20T13:39:19.744Z,61.70
2023-03-20T13:41:57.938Z,62.30
2023-03-20T13:44:36.489Z,62.50
2023-03-20T13:47:21.846Z,60.80
2023-03-20T13:50:14.246Z,61.70
2023-03-20T13:52:55.493Z,63.30
2023-03-20T13:55:28.823Z,61.20
2023-03-20T13:58:07.409Z,61.70
2023-03-20T14:00:39.388Z,60.60
2023-03-20T14:03:20.143Z,60.80
2023-03-20T14:05:49.925Z,60.80
2023-03-20T14:08:33.734Z,60.70
2023-03-20T14:11:07.703Z,62.00
2023-03-20T14:13:36.664Z,61.70
2023-03-20T14:16:06.601Z,61.40
2023-03-20T14:18:34.914Z,60.90
2023-03-20T14:21:10.627Z,60.60
2023-03-20T14:23:40.443Z,57.80
2023-03-20T14:26:10.767Z,57.60
2023-03-20T14:28:45.625Z,58.40
2023-03-20T14:31:21.823Z,58.30
2023-03-20T14:33:55.245Z,58.30
2023-03-20T14:36:28.104Z,59.10
2023-03-20T14:39:04.099Z,59.10
2023-03-20T14:41:38.831Z,57.70
2023-03-20T14:44:14.559Z,56.40
2023-03-20T14:46:49.778Z,56.10
2023-03-20T14:49:25.651Z,56.00
2023-03-20T14:52:02.161Z,57.00
2023-03-20T14:54:34.422Z,58.40
2023-03-20T14:57:10.291Z,58.80
2023-03-20T14:59:39.014Z,59.10
2023-03-20T15:02:07.190Z,58.20
2023-03-20T15:04:38.830Z,57.90
2023-03-20T15:07:15.089Z,59.10
2023-03-20T15:09:45.032Z,57.30
2023-03-20T15:12:15.262Z,58.30
2023-03-20T15:14:46.854Z,56.70
2023-03-20T15:17:21.240Z,56.40
2023-03-20T15:19:52.668Z,55.60
2023-03-20T15:22:23.398Z,55.60
2023-03-20T15:24:55.842Z,55.50
2023-03-20T15:27:26.141Z,56.00
2023-03-20T15:29:56.105Z,54.80
2023-03-20T15:32:25.979Z,54.80
2023-03-20T15:34:54.384Z,56.50
2023-03-20T15:37:29.662Z,56.40
2023-03-20T15:40:00.307Z,56.00
2023-03-20T15:42:28.814Z,56.70
2023-03-20T15:44:57.616Z,56.90
2023-03-20T15:47:27.035Z,56.60
2023-03-20T15:49:56.522Z,57.60
2023-03-20T15:52:31.017Z,58.30
2023-03-20T15:55:00.294Z,58.10
2023-03-20T15:57:35.550Z,58.10
2023-03-20T16:00:05.243Z,57.80
2023-03-20T16:02:36.521Z,57.30
2023-03-20T16:05:05.239Z,57.10
2023-03-20T16:07:35.039Z,58.00
2023-03-20T16:10:14.035Z,58.70
2023-03-20T16:12:47.253Z,59.10
2023-03-20T16:15:16.908Z,59.30
2023-03-20T16:17:46.172Z,60.20
2023-03-20T16:20:15.508Z,59.90
2023-03-20T16:22:59.124Z,59.90
2023-03-20T16:25:30.451Z,59.90
2023-03-20T16:27:59.721Z,60.10
2023-03-20T16:30:32.005Z,61.10
2023-03-20T16:33:02.005Z,60.90
2023-03-20T16:35:34.966Z,60.10
2023-03-20T16:38:15.523Z,60.20
2023-03-20T16:40:43.752Z,60.80
2023-03-20T16:43:14.343Z,60.80
2023-03-20T16:45:44.342Z,61.40
2023-03-20T16:48:26.883Z,62.10
2023-03-20T16:51:00.358Z,61.80
2023-03-20T16:53:32.218Z,62.30
2023-03-20T16:56:05.402Z,62.90
2023-03-20T16:58:35.449Z,62.50
2023-03-20T17:01:05.125Z,63.10
2023-03-20T17:03:38.012Z,63.10
2023-03-20T17:06:08.034Z,63.50
2023-03-20T17:08:41.338Z,64.80
2023-03-20T17:11:12.763Z,65.30
2023-03-20T17:13:41.344Z,65.80
2023-03-20T17:16:12.215Z,65.60
2023-03-20T17:18:40.444Z,65.40
2023-03-20T17:21:08.650Z,65.30
2023-03-20T17:23:38.649Z,65.50
2023-03-20T17:26:07.909Z,66.00
2023-03-20T17:28:37.447Z,66.60
2023-03-20T17:31:06.560Z,66.20
2023-03-20T17:33:36.310Z,66.90
2023-03-20T17:36:04.906Z,66.70
2023-03-20T17:38:33.238Z,67.40
2023-03-20T17:41:02.674Z,67.10
2023-03-20T17:43:30.757Z,67.90
2023-03-20T17:46:00.387Z,68.40
2023-03-20T17:48:29.709Z,67.90
2023-03-20T17:50:57.879Z,68.40
2023-03-20T17:53:29.253Z,68.20
2023-03-20T17:55:57.707Z,68.60
2023-03-20T17:58:28.400Z,68.90
2023-03-20T18:00:57.262Z,68.70
2023-03-20T18:03:27.095Z,68.80
2023-03-20T18:05:56.786Z,68.80
2023-03-20T18:08:25.342Z,69.50
2023-03-20T18:10:54.978Z,69.70
2023-03-20T18:13:25.782Z,69.80
2023-03-20T18:15:58.568Z,69.80
2023-03-20T18:18:27.618Z,69.80
2023-03-20T18:21:00.052Z,70.10
2023-03-20T18:23:32.432Z,70.20
2023-03-20T18:26:01.724Z,70.20
2023-03-20T18:28:34.505Z,70.40
2023-03-20T18:31:05.350Z,70.70
2023-03-20T18:33:35.244Z,70.80
2023-03-20T18:36:03.831Z,70.90
2023-03-20T18:38:33.886Z,71.10
2023-03-20T18:41:05.418Z,71.00
2023-03-20T18:43:34.506Z,71.30
2023-03-20T18:46:04.713Z,71.30
2023-03-20T18:48:34.477Z,71.20
2023-03-20T18:51:04.261Z,71.40
2023-03-20T18:53:33.208Z,71.60
2023-03-20T18:56:01.829Z,71.20
2023-03-20T18:58:33.236Z,71.30
2023-03-20T19:01:02.326Z,71.70
2023-03-20T19:03:39.786Z,71.70
2023-03-20T19:06:12.121Z,71.80
2023-03-20T19:08:40.699Z,71.90
2023-03-20T19:11:15.421Z,71.90
2023-03-20T19:13:47.529Z,71.70
2023-03-20T19:16:25.602Z,71.70
2023-03-20T19:18:56.944Z,72.00
2023-03-20T19:21:26.478Z,72.00
2023-03-20T19:23:55.630Z,71.90
2023-03-20T19:26:26.495Z,72.10
2023-03-20T19:28:56.057Z,72.20
2023-03-20T19:31:25.791Z,72.20
2023-03-20T19:33:56.827Z,72.20
2023-03-20T19:36:26.983Z,72.20
2023-03-20T19:38:57.996Z,72.20
2023-03-20T19:41:28.022Z,72.20
2023-03-20T19:43:56.422Z,72.20
2023-03-20T19:46:39.164Z,71.90
2023-03-20T19:49:17.775Z,72.00
2023-03-20T19:51:48.373Z,72.10
2023-03-20T19:54:16.853Z,72.10
2023-03-20T19:56:45.211Z,72.00
2023-03-20T19:59:16.544Z,71.80
2023-03-20T20:01:46.668Z,71.80
2023-03-20T20:04:16.992Z,71.80
2023-03-20T20:06:47.418Z,72.00
2023-03-20T20:09:16.602Z,72.00
2023-03-20T20:11:46.717Z,72.00
2023-03-20T20:14:15.537Z,72.00
2023-03-20T20:16:45.738Z,72.00
2023-03-20T20:19:14.650Z,72.10
2023-03-20T20:22:25.329Z,72.20
2023-03-20T20:24:33.081Z,72.20
2023-03-20T20:27:16.392Z,72.30
2023-03-20T20:29:49.224Z,72.40
2023-03-20T20:32:17.821Z,72.50
2023-03-20T20:35:34.929Z,72.30
2023-03-20T20:38:30.709Z,72.40
2023-03-20T20:40:26.119Z,73.00
2023-03-20T20:42:56.418Z,73.40
2023-03-20T20:45:25.899Z,73.90
2023-03-20T20:47:54.908Z,74.40
2023-03-20T20:50:24.217Z,74.80
2023-03-20T20:52:54.405Z,75.20
2023-03-20T20:55:24.650Z,75.40
2023-03-20T20:57:54.813Z,75.70
2023-03-20T21:00:37.173Z,76.00
2023-03-20T21:03:13.595Z,76.00
2023-03-20T21:05:45.144Z,76.00
2023-03-20T21:08:16.815Z,76.30
2023-03-20T21:10:47.971Z,76.30
2023-03-20T21:13:16.619Z,76.50
2023-03-20T21:15:45.910Z,76.50
2023-03-20T21:18:14.078Z,76.80
2023-03-20T21:20:49.141Z,76.90
2023-03-20T21:23:21.100Z,77.00
2023-03-20T21:25:50.552Z,76.60
2023-03-20T21:28:19.888Z,77.10
2023-03-20T21:31:12.506Z,77.10
2023-03-20T21:33:39.865Z,77.20
2023-03-20T21:36:08.517Z,77.20
2023-03-20T21:41:28.650Z,77.00
2023-03-20T21:43:57.023Z,76.70
2023-03-20T21:46:58.737Z,76.50
2023-03-20T22:03:38.628Z,76.10
2023-03-20T22:12:30.471Z,75.40
2023-03-20T22:15:23.272Z,75.10
2023-03-20T22:21:21.905Z,75.00
2023-03-20T22:38:52.333Z,74.50
2023-03-20T22:41:24.438Z,74.80
2023-03-20T22:44:24.881Z,74.60
2023-03-20T22:49:06.752Z,75.10
2023-03-20T22:51:40.917Z,75.20
2023-03-20T22:54:14.772Z,75.20
2023-03-20T22:56:44.629Z,75.40
2023-03-20T22:59:16.162Z,75.20
2023-03-20T23:01:46.517Z,75.00
2023-03-20T23:04:19.173Z,75.20
2023-03-20T23:06:48.343Z,75.20
2023-03-20T23:09:20.065Z,75.30
2023-03-20T23:11:48.998Z,75.20
2023-03-20T23:14:22.142Z,75.30
2023-03-20T23:19:47.884Z,75.10
2023-03-20T23:22:21.572Z,75.30
2023-03-20T23:24:51.147Z,75.40
2023-03-20T23:27:27.504Z,75.40
2023-03-20T23:29:58.928Z,75.30
2023-03-20T23:32:34.810Z,75.40
2023-03-20T23:35:20.887Z,75.20
2023-03-20T23:37:59.809Z,75.30
2023-03-20T23:40:31.160Z,75.00
2023-03-20T23:43:02.992Z,74.80
2023-03-20T23:45:33.413Z,74.70
2023-03-20T23:48:10.733Z,74.80
2023-03-20T23:50:52.178Z,74.90
2023-03-20T23:53:26.284Z,74.90
2023-03-20T23:55:56.813Z,75.00
2023-03-20T23:58:27.644Z,75.10
